Springfield, AR

7:59 PM CDT on May 22, 2015 (GMT -0500)
Little Rock Air Force Base | | Change Station
CLOSE
Current Station
Airport
Location: Little Rock AFB,
Elevation: 312 ft
Nearby Weather Stations
Active Advisory: Flood Warning

Elev 312 ft 34.92 °N, 92.15 °W | Updated 1 hour ago

Overcast
Overcast
68 °F
Feels Like 68 °F
N
4
Wind Variable Wind from East

Today
High -- | Low -- °F
--% Chance of Precip.
Yesterday
High -- | Low -- °F
Precip. -- in
6:01 AM 8:12 PM
Waxing Crescent, 25% visible
Pressure 30.22 in
Visibility 10.0 miles
Clouds Clear
Dew Point 53 °F
Humidity 59%
Rainfall 0.00 in
Snow Depth Not available.
UV 1 out of 12
Pollen 7.50 out of 12
Air Quality Not available.
Flu Activity No Activity
METAR KLRF 222358Z AUTO 10003KT 10SM CLR 20/12 A3021 RMK AO2 SLP232 T02000117 10230 20197 55006

More Conditions Fewer Conditions

Pressure 30.22 in
Visibility 10.0 miles
Clouds Clear
Dew Point 53 °F
Humidity 59%
Rainfall 0.00 in
Snow Depth Not available.
UV 1 out of 12
Pollen 7.50 out of 12
Air Quality Not available.
Flu Activity No Activity
METAR KLRF 222358Z AUTO 10003KT 10SM CLR 20/12 A3021 RMK AO2 SLP232 T02000117 10230 20197 55006

More Conditions Fewer Conditions

10-Day Weather Forecast

Almanac

Astronomy

May. 22, 2015 Rise Set
Actual Time
Civil Twilight
Nautical Twilight
Astronomical Twilight
Moon
Length of Visible Light
Length of Day
Tomorrow will be .
, % of the Moon is Illuminated

Today's Extremes

State Highs State Lows

Community

WunderPhotos

Upload Photos

1,823,350 photos uploaded!

WunderBlogs® & News

Nearby

Air Quality

  Air Quality AQ Index Pollutant
Not available.

Snow Depth

Station Depth Elevation

Earthquake Activity

City Distance Mag. Time & Date
Minimum magnitude displayed is 2.5.

Coastal Water Temperatures

Place Temperature

Stations

Nearby Weather Stations

Station Location Temp. Windchill Dew Point Humidity Wind Precip. Elev Updated Type
                   
Flood Warning
Statement as of 3:02 PM CDT on May 22, 2015

The Flood Warning continues for
the Arkansas River at Morrilton.
* Until late Saturday night... or until the warning is cancelled.
* At 2:15 PM Friday the stage was 30.5 feet.
* Minor flooding is occurring and minor flooding is forecast.
* Flood stage is 30.0 feet.
* Forecast... the river will continue to fall to below flood stage
tonight. However additional rainfall is expected this weekend.
Please monitor the latest forecasts for any updates.
* Impacts at 30.0 feet... commercial and Industrial establishments
downstream of the State Highway 9 bridge are effected.




             Fld observed forecast 7 am
location stg stg day time Sat sun Mon Tue Wed

Arkansas River
Morrilton 30 30.5 Fri 02 PM 29.2 27.1 26.4 26.0 26.0




Lat... Lon 3504 9261 3503 9269 3508 9278 3520 9280
3514 9268 3511 9251